Pagina principale
METAR-TAF:

METAR-TAF

Aeroporti :

Aeroporto di Magadino

Locarno, Svizzera

latitudine: 46-09-55N, longitudine: 8-52-40E, altezza: 198 m

Osservazione

Il bollettino è stato emesso 1 ora e 8 minuti fa, alle 19:50 UTC
Vento 8 kt da est/sud-est, variando fra est e sud-ovest
Temperature 23°C
Umidità 22%
Pressione 1017 hPa
Visibilità 10 km o più

METAR: LSZL 221950Z AUTO 11008KT 080V230 9999NDV NCD 23/M00 Q1017 RMK

Ora: 22:58 (20:58 UTC)

Previsione

Il bollettino è stato emesso 3 ore e 33 minuti fa, alle 17:25 UTC
Previsione valida dal 22 alle 18 UTC al 23 alle 03 UTC
Vento 8 kt da nord
Visibilità 10 km o più
nessuna nube inferiore a 1500 m e nessun cumulonembo

TAF: LSZL 221725Z 2218/2303 35008KT CAVOK

Osservazioni e previsioni meteorologiche di più di 4000 aeroporti (messaggi METAR e TAF).

Le stazioni disponibili sono rappresentate dai dischi gialli e rossi sulla carta.

Puntare il mouse per vedere il nome della stazione.

Clicca sopra per visualizzare le osservazioni e previsioni meteorologiche.

Per cambiare la mappa : fare clic sui pulsanti verdi con una croce nera per ingrandire, il pulsante verde con un trattino per diminuire, o sulla freccia verde per le mappe adiacenti.


METAR-TAF: